LATI Airport Information

Runway Information
Runway 18 Length 8971 ft width 148 ft
Elevation 109 ft Threshold 0 ft Heading 174
Runway 36 Length 8971 ft Width 148 ft
Elevation 126 ft Threshold 0 ft Heading 354
Airport Frequencies
Type ACC Name ACC Frequency 127.5 MHZ
Type APP Name APP Frequency 133.15 MHZ
Type TWR Name TWR Frequency 122.5 MHZ
Airport Navaids
Type NDB Name Tirana Frequency 290 KHZ
Type VOR-DME Name Tirana Frequency 117700 KHZ
Airport Weather Information & NOTAM
ADDS - METARS form results

(1703 UTC 12 December 2019)
Data provider http://aviationweather.gov/metar/data/
 
METAR text: LATI 121650Z 12003KT 9999 OVC057 12/06 Q1004 NOSIG
Conditions at: LATI (TIRANA , AL) observed 1650 UTC 12 December 2019
Temperature: 12.0°C (54°F)
Dewpoint: 6.0°C (43°F) [RH = 67%]
Pressure (altimeter): 29.65 inches Hg (1004.0 mb)
Winds: from the ESE (120 degrees) at 3 MPH (3 knots; 1.5 m/s)
Visibility: 6 or more miles (10+ km)
Ceiling: 5700 feet AGL
Clouds: overcast cloud deck at 5700 feet AGL
Weather: no significant weather observed at this time

METAR text: LATI 121620Z 00000KT 9999 OVC060 13/05 Q1004 NOSIG
Conditions at: LATI (TIRANA , AL) observed 1620 UTC 12 December 2019
Temperature: 13.0°C (55°F)
Dewpoint: 5.0°C (41°F) [RH = 58%]
Pressure (altimeter): 29.65 inches Hg (1004.0 mb)
Winds: calm
Visibility: 6 or more miles (10+ km)
Ceiling: 6000 feet AGL
Clouds: overcast cloud deck at 6000 feet AGL
Weather: no significant weather observed at this time

Forecast for: LATI (TIRANA , AL)
Text: TAF LATI 121100Z 1212/1312 VRB04KT 9999 BKN050 BKN090 TX15/1212Z TN08/1306Z
Forecast period: 1200 UTC 12 December 2019 to 1200 UTC 13 December 2019
Forecast type: FROM: standard forecast or significant change
Winds: variable direction winds at 5 MPH (4 knots; 2.1 m/s)
Visibility: 6 or more miles 10+ km)
Ceiling: 5000 feet AGL
Clouds: broken clouds at 5000 feet AGL
broken clouds at 9000 feet AGL
Weather: no significant weather forecast for this period
Text: TEMPO 1218/1309 17010KT RA SCT030TCU
Forecast period: 1800 UTC 12 December 2019 to 0900 UTC 13 December 2019
Forecast type: TEMPORARY: The following changes expected for less than half the time period
Winds: from the S (170 degrees) at 12 MPH (10 knots; 5.1 m/s)
Visibility: missing
Ceiling: at least 12,000 feet AGL
Clouds: scattered clouds at 3000 feet AGL
Weather: RA  (moderate rain)
Text: PROB30
Forecast period: 2300 UTC 12 December 2019 to 0600 UTC 13 December 2019
Forecast type: TEMPORARY: The following changes expected for less than half the time period
Winds: from the S (190 degrees) at 12 MPH (10 knots; 5.1 m/s)
gusting to 29 MPH (25 knots; 12.9 m/s)
Visibility: missing
Ceiling: 4000 feet AGL
Clouds: scattered clouds at 2000 feet AGL
overcast cloud deck at 4000 feet AGL
Weather: TSRA  (rain associated with thunderstorm(s))